Time;durP1;ratioP1;P1;durP2;ratioP2;P2;SDS_P1;SDS_P2;PMS_P1;PMS_P2;Temp;Humidity;BMP_temperature;BMP_pressure;BME280_temperature;BME280_humidity;BME280_pressure;Samples;Min_cycle;Max_cycle;Signal;HPM_P1;HPM_P2
2021/11/23 00:01:29;;;;;;;30.17;27.85;;;;;;;;;;4977980;28;20202;-84
2021/11/23 00:03:56;;;;;;;29.10;27.00;;;;;;;;;;4981072;28;20199;-85
2021/11/23 00:06:25;;;;;;;30.17;27.77;;;;;;;;;;4980267;28;20191;-84
2021/11/23 00:08:52;;;;;;;29.13;26.92;;;;;;;;;;4979739;28;20199;-85
2021/11/23 00:11:20;;;;;;;30.77;28.48;;;;;;;;;;4978885;28;20195;-84
2021/11/23 00:13:47;;;;;;;29.60;27.05;;;;;;;;;;4982176;28;20235;-84
2021/11/23 00:16:14;;;;;;;30.85;28.38;;;;;;;;;;4980464;28;20195;-84
2021/11/23 00:18:43;;;;;;;31.40;28.85;;;;;;;;;;4961551;28;20603;-84
2021/11/23 00:21:11;;;;;;;112.40;95.32;;;;;;;;;;4980027;28;20190;-84
2021/11/23 00:23:38;;;;;;;31.42;29.02;;;;;;;;;;4980247;28;20211;-83
2021/11/23 00:26:06;;;;;;;30.80;28.30;;;;;;;;;;4983891;28;20203;-85
2021/11/23 00:28:33;;;;;;;32.78;30.02;;;;;;;;;;4980633;28;20214;-85
2021/11/23 00:31:01;;;;;;;30.77;28.17;;;;;;;;;;4979209;28;20218;-85
2021/11/23 00:33:31;;;;;;;30.40;28.10;;;;;;;;;;4978946;28;20580;-85
2021/11/23 00:36:01;;;;;;;31.08;28.42;;;;;;;;;;4980094;28;20673;-84
2021/11/23 00:38:29;;;;;;;31.80;29.05;;;;;;;;;;4979238;28;20607;-84
2021/11/23 00:40:56;;;;;;;31.42;28.88;;;;;;;;;;4980465;28;20267;-83
2021/11/23 00:43:29;;;;;;;31.48;28.83;;;;;;;;;;4982357;28;20558;-84
2021/11/23 00:45:56;;;;;;;32.28;29.50;;;;;;;;;;4961358;28;20257;-84
2021/11/23 00:48:24;;;;;;;30.95;28.50;;;;;;;;;;4979591;28;20211;-83
2021/11/23 00:50:51;;;;;;;30.63;28.23;;;;;;;;;;4979677;28;20206;-84
2021/11/23 00:53:20;;;;;;;31.77;29.35;;;;;;;;;;4980523;28;20238;-84
2021/11/23 00:55:47;;;;;;;33.22;30.73;;;;;;;;;;4978951;28;20206;-85
2021/11/23 00:58:16;;;;;;;30.40;28.10;;;;;;;;;;4961302;28;20650;-85
2021/11/23 01:00:44;;;;;;;29.88;27.48;;;;;;;;;;4979462;28;20246;-84
2021/11/23 01:03:13;;;;;;;31.30;28.90;;;;;;;;;;4980472;28;20203;-85
2021/11/23 01:05:40;;;;;;;76.72;68.13;;;;;;;;;;4960362;28;20242;-85
2021/11/23 01:08:08;;;;;;;31.20;28.60;;;;;;;;;;4978102;28;20187;-84
2021/11/23 01:10:37;;;;;;;29.10;26.80;;;;;;;;;;4978000;28;20270;-85
2021/11/23 01:13:04;;;;;;;31.33;28.63;;;;;;;;;;4981019;28;20207;-82
2021/11/23 01:15:31;;;;;;;30.58;27.65;;;;;;;;;;4978293;28;20194;-85
2021/11/23 01:17:59;;;;;;;32.13;29.13;;;;;;;;;;4978374;28;20195;-85
2021/11/23 01:20:27;;;;;;;33.53;30.33;;;;;;;;;;4949226;28;20286;-85
2021/11/23 01:22:57;;;;;;;30.95;28.50;;;;;;;;;;4979795;28;20206;-84
2021/11/23 01:25:26;;;;;;;30.20;27.90;;;;;;;;;;4979160;28;20196;-83
2021/11/23 01:27:58;;;;;;;32.00;29.50;;;;;;;;;;4979354;28;20199;-85
2021/11/23 01:30:26;;;;;;;30.58;28.15;;;;;;;;;;4978980;28;20191;-84
2021/11/23 01:32:54;;;;;;;30.38;27.88;;;;;;;;;;4979682;28;20250;-84
2021/11/23 01:35:22;;;;;;;31.45;28.45;;;;;;;;;;4961558;28;20238;-85
2021/11/23 01:37:50;;;;;;;31.10;28.55;;;;;;;;;;4978865;28;20273;-84
2021/11/23 01:40:18;;;;;;;31.08;28.60;;;;;;;;;;4943728;28;20229;-84
2021/11/23 01:42:46;;;;;;;29.45;27.05;;;;;;;;;;4977462;28;20606;-83
2021/11/23 01:45:15;;;;;;;29.13;26.92;;;;;;;;;;4976869;28;20571;-85
2021/11/23 01:47:52;;;;;;;30.75;28.17;;;;;;;;;;4959470;28;20198;-84
2021/11/23 01:50:20;;;;;;;29.75;27.23;;;;;;;;;;4976302;28;20199;-84
2021/11/23 01:52:47;;;;;;;30.25;27.85;;;;;;;;;;4957126;29;20287;-84
2021/11/23 01:55:15;;;;;;;30.27;28.02;;;;;;;;;;4957517;29;20220;-84
2021/11/23 01:57:44;;;;;;;30.17;27.65;;;;;;;;;;4957277;29;20199;-84
2021/11/23 02:00:12;;;;;;;29.02;26.83;;;;;;;;;;4957181;28;20204;-84
2021/11/23 02:02:41;;;;;;;29.70;27.30;;;;;;;;;;4958138;29;20209;-85
2021/11/23 02:05:09;;;;;;;30.80;28.33;;;;;;;;;;4957317;29;20192;-84
2021/11/23 02:07:37;;;;;;;31.27;28.80;;;;;;;;;;4957360;29;20243;-84
2021/11/23 02:10:05;;;;;;;32.15;29.27;;;;;;;;;;4959359;29;20188;-85
2021/11/23 02:12:33;;;;;;;31.48;28.85;;;;;;;;;;4956683;28;20215;-85
2021/11/23 02:15:00;;;;;;;30.75;28.35;;;;;;;;;;4956844;29;20215;-85
2021/11/23 02:17:31;;;;;;;31.50;28.80;;;;;;;;;;4955323;29;20560;-84
2021/11/23 02:20:01;;;;;;;31.00;28.48;;;;;;;;;;4955105;29;20361;-85
2021/11/23 02:22:29;;;;;;;31.73;29.17;;;;;;;;;;4957067;29;20192;-84
2021/11/23 02:24:56;;;;;;;31.92;29.00;;;;;;;;;;4956343;28;20240;-85
2021/11/23 02:27:24;;;;;;;31.00;28.60;;;;;;;;;;4956705;29;20188;-84
2021/11/23 02:29:51;;;;;;;32.20;29.42;;;;;;;;;;4957339;28;20197;-85
2021/11/23 02:32:19;;;;;;;30.38;28.15;;;;;;;;;;4956598;29;20192;-85
2021/11/23 02:34:46;;;;;;;33.00;30.13;;;;;;;;;;4957703;29;20224;-85
2021/11/23 02:37:15;;;;;;;31.17;28.55;;;;;;;;;;4957770;29;20219;-84
2021/11/23 02:39:43;;;;;;;31.17;28.75;;;;;;;;;;4956564;29;20578;-85
2021/11/23 02:42:10;;;;;;;32.15;29.55;;;;;;;;;;4957687;29;20224;-84
2021/11/23 02:44:42;;;;;;;33.67;30.55;;;;;;;;;;4956075;29;20195;-85
2021/11/23 02:47:10;;;;;;;32.00;29.58;;;;;;;;;;4959091;28;20192;-84
2021/11/23 02:49:37;;;;;;;31.23;28.85;;;;;;;;;;4958799;28;20728;-85
2021/11/23 02:52:08;;;;;;;32.17;29.52;;;;;;;;;;4957994;29;20192;-84
2021/11/23 02:54:38;;;;;;;32.08;29.58;;;;;;;;;;4976156;28;20325;-85
2021/11/23 02:57:05;;;;;;;32.40;29.77;;;;;;;;;;4976682;28;20202;-85
2021/11/23 02:59:35;;;;;;;30.70;28.38;;;;;;;;;;4976626;28;20195;-84
2021/11/23 03:02:02;;;;;;;31.90;29.10;;;;;;;;;;4977017;28;20214;-85
2021/11/23 03:04:30;;;;;;;32.28;29.20;;;;;;;;;;4977963;28;20199;-84
2021/11/23 03:06:57;;;;;;;30.73;28.15;;;;;;;;;;4976573;28;20245;-85
2021/11/23 03:09:25;;;;;;;32.88;30.23;;;;;;;;;;4977798;28;20203;-84
2021/11/23 03:11:54;;;;;;;31.95;29.42;;;;;;;;;;4977789;28;20287;-85
2021/11/23 03:14:29;;;;;;;32.03;29.15;;;;;;;;;;4976157;28;20218;-84
2021/11/23 03:16:56;;;;;;;32.00;29.13;;;;;;;;;;4977371;28;20218;-84
2021/11/23 03:19:24;;;;;;;31.75;29.08;;;;;;;;;;4976215;28;20196;-85
2021/11/23 03:21:52;;;;;;;30.98;28.38;;;;;;;;;;4958338;28;20265;-84
2021/11/23 03:24:26;;;;;;;31.27;28.75;;;;;;;;;;4959284;28;20579;-85
2021/11/23 03:26:55;;;;;;;29.98;27.05;;;;;;;;;;4962735;28;20195;-84
2021/11/23 03:29:22;;;;;;;31.40;28.65;;;;;;;;;;4979776;28;20218;-85
2021/11/23 03:31:55;;;;;;;33.10;29.70;;;;;;;;;;4979447;28;20278;-85
2021/11/23 03:34:23;;;;;;;30.67;28.30;;;;;;;;;;4961459;28;20223;-85
2021/11/23 03:36:51;;;;;;;31.65;29.23;;;;;;;;;;4980141;28;20546;-85
2021/11/23 03:39:18;;;;;;;33.35;30.60;;;;;;;;;;4979820;28;20203;-85
2021/11/23 03:41:45;;;;;;;33.90;30.88;;;;;;;;;;4978823;28;20614;-85
2021/11/23 03:44:14;;;;;;;31.38;28.65;;;;;;;;;;4980332;28;20206;-84
2021/11/23 03:46:41;;;;;;;31.05;28.45;;;;;;;;;;4980274;28;20653;-85
2021/11/23 03:49:09;;;;;;;31.60;28.98;;;;;;;;;;4990891;28;20214;-85
2021/11/23 03:51:37;;;;;;;32.60;29.70;;;;;;;;;;4978500;28;20198;-85
2021/11/23 03:54:04;;;;;;;34.25;31.23;;;;;;;;;;4978565;28;20258;-85
2021/11/23 03:56:32;;;;;;;33.85;30.92;;;;;;;;;;4977777;28;20246;-85
2021/11/23 03:58:59;;;;;;;32.00;29.15;;;;;;;;;;4979719;28;20206;-84
2021/11/23 04:01:28;;;;;;;32.88;30.17;;;;;;;;;;4978802;28;20202;-84
2021/11/23 04:03:55;;;;;;;34.55;31.63;;;;;;;;;;4979545;28;20223;-85
2021/11/23 04:06:23;;;;;;;33.40;30.50;;;;;;;;;;4977968;28;20200;-85
2021/11/23 04:08:50;;;;;;;34.30;31.25;;;;;;;;;;4979003;28;20199;-84
2021/11/23 04:11:18;;;;;;;33.63;30.30;;;;;;;;;;4979322;28;20194;-84
2021/11/23 04:13:45;;;;;;;33.13;30.42;;;;;;;;;;4978018;28;20207;-85
2021/11/23 04:16:14;;;;;;;34.83;31.73;;;;;;;;;;4978282;28;20236;-85
2021/11/23 04:18:43;;;;;;;25.45;23.58;;;;;;;;;;4978709;28;20246;-85
2021/11/23 04:21:11;;;;;;;32.88;29.95;;;;;;;;;;4979772;28;20700;-84
2021/11/23 04:23:38;;;;;;;31.95;29.15;;;;;;;;;;4985037;28;20219;-84
2021/11/23 04:26:05;;;;;;;35.38;32.10;;;;;;;;;;4980821;28;20621;-85
2021/11/23 04:28:33;;;;;;;31.15;28.55;;;;;;;;;;4977612;28;20200;-85
2021/11/23 04:31:00;;;;;;;33.45;30.40;;;;;;;;;;4978435;28;20202;-84
2021/11/23 04:33:28;;;;;;;35.63;32.13;;;;;;;;;;4978410;28;20192;-85
2021/11/23 04:35:57;;;;;;;35.70;32.63;;;;;;;;;;4977250;28;20231;-84
2021/11/23 04:38:24;;;;;;;33.90;30.80;;;;;;;;;;4977793;28;20665;-85
2021/11/23 04:40:51;;;;;;;34.13;31.13;;;;;;;;;;4978223;28;20201;-85
2021/11/23 04:43:19;;;;;;;35.35;32.15;;;;;;;;;;4978114;28;20203;-85
2021/11/23 04:45:46;;;;;;;33.08;30.27;;;;;;;;;;4978215;28;20187;-83
2021/11/23 04:48:13;;;;;;;35.55;32.00;;;;;;;;;;4977340;28;20716;-85
2021/11/23 04:50:41;;;;;;;36.20;32.58;;;;;;;;;;4977329;28;20199;-85
2021/11/23 04:53:10;;;;;;;34.80;31.58;;;;;;;;;;4977096;28;20255;-85
2021/11/23 04:55:38;;;;;;;37.65;34.25;;;;;;;;;;4977278;28;20623;-85
2021/11/23 04:58:05;;;;;;;37.65;33.80;;;;;;;;;;4977307;28;20198;-84
2021/11/23 05:00:32;;;;;;;39.65;34.97;;;;;;;;;;4977087;28;20283;-85
2021/11/23 05:02:59;;;;;;;39.47;35.88;;;;;;;;;;4977431;28;20204;-85
2021/11/23 05:05:27;;;;;;;38.85;35.33;;;;;;;;;;4976813;28;20199;-84
2021/11/23 05:07:55;;;;;;;39.05;35.40;;;;;;;;;;4977261;28;20196;-85
2021/11/23 05:10:23;;;;;;;38.28;34.70;;;;;;;;;;4977247;28;20196;-85
2021/11/23 05:12:51;;;;;;;35.50;32.03;;;;;;;;;;4976772;28;20195;-85
2021/11/23 05:15:18;;;;;;;36.08;32.78;;;;;;;;;;4977122;28;20225;-85
2021/11/23 05:17:46;;;;;;;38.45;34.65;;;;;;;;;;4976760;28;20203;-84
2021/11/23 05:20:13;;;;;;;37.53;33.72;;;;;;;;;;4976635;28;20647;-85
2021/11/23 05:22:41;;;;;;;36.50;33.00;;;;;;;;;;4977464;28;20192;-85
2021/11/23 05:25:09;;;;;;;37.13;33.33;;;;;;;;;;4976848;28;20234;-85
2021/11/23 05:27:39;;;;;;;36.25;32.85;;;;;;;;;;4976699;28;20225;-84
2021/11/23 05:30:07;;;;;;;37.83;34.45;;;;;;;;;;4977555;28;20193;-85
2021/11/23 05:32:34;;;;;;;38.15;34.60;;;;;;;;;;4977623;28;20195;-85
2021/11/23 05:35:02;;;;;;;39.42;35.75;;;;;;;;;;4976529;28;20210;-85
2021/11/23 05:37:29;;;;;;;39.35;35.65;;;;;;;;;;4976595;28;20203;-84
2021/11/23 05:39:56;;;;;;;38.85;35.05;;;;;;;;;;4976355;28;20192;-84
2021/11/23 05:42:24;;;;;;;38.95;34.50;;;;;;;;;;4977054;28;20195;-84
2021/11/23 05:44:52;;;;;;;37.45;34.10;;;;;;;;;;4980316;28;20195;-84
2021/11/23 05:47:20;;;;;;;37.75;34.35;;;;;;;;;;4977930;28;20199;-85
2021/11/23 05:49:47;;;;;;;36.35;33.08;;;;;;;;;;4976624;28;20647;-84
2021/11/23 05:52:15;;;;;;;37.40;33.80;;;;;;;;;;4977998;28;20191;-85
2021/11/23 05:54:42;;;;;;;36.13;32.97;;;;;;;;;;4976934;28;20230;-85
2021/11/23 05:57:10;;;;;;;38.05;34.17;;;;;;;;;;4976437;28;20652;-84
2021/11/23 05:59:38;;;;;;;37.97;34.47;;;;;;;;;;4978612;28;20200;-85
2021/11/23 06:02:07;;;;;;;35.05;31.88;;;;;;;;;;4977916;28;20208;-85
2021/11/23 06:04:34;;;;;;;37.70;34.25;;;;;;;;;;4977086;28;20208;-85
2021/11/23 06:07:02;;;;;;;35.50;32.50;;;;;;;;;;4962043;28;20234;-85
2021/11/23 06:09:29;;;;;;;38.20;34.80;;;;;;;;;;4980009;28;20199;-84
2021/11/23 06:11:57;;;;;;;37.45;34.10;;;;;;;;;;4977207;28;20193;-85
2021/11/23 06:14:24;;;;;;;37.00;33.65;;;;;;;;;;4978031;28;20203;-84
2021/11/23 06:16:53;;;;;;;37.72;34.22;;;;;;;;;;4977651;28;20230;-85
2021/11/23 06:19:21;;;;;;;37.70;34.50;;;;;;;;;;4980066;28;20196;-85
2021/11/23 06:21:49;;;;;;;38.08;34.33;;;;;;;;;;4976620;28;20212;-85
2021/11/23 06:24:16;;;;;;;38.05;34.55;;;;;;;;;;4975594;28;20187;-84
2021/11/23 06:26:44;;;;;;;36.15;33.05;;;;;;;;;;4976336;28;20200;-85
2021/11/23 06:29:11;;;;;;;39.10;35.40;;;;;;;;;;4976424;28;20198;-85
2021/11/23 06:31:39;;;;;;;38.95;35.42;;;;;;;;;;4976776;28;20194;-84
2021/11/23 06:34:09;;;;;;;39.30;35.75;;;;;;;;;;4975645;28;20195;-85
2021/11/23 06:36:38;;;;;;;38.45;35.05;;;;;;;;;;4976458;28;20767;-84
2021/11/23 06:39:07;;;;;;;38.60;35.22;;;;;;;;;;4976145;28;20203;-85
2021/11/23 06:41:34;;;;;;;38.25;34.92;;;;;;;;;;4975585;28;20196;-85
2021/11/23 06:44:03;;;;;;;37.00;33.65;;;;;;;;;;4974892;28;20664;-85
2021/11/23 06:46:30;;;;;;;39.33;35.70;;;;;;;;;;4975385;28;20223;-85
2021/11/23 06:48:58;;;;;;;40.88;36.88;;;;;;;;;;4974942;28;20196;-85
2021/11/23 06:51:26;;;;;;;40.78;36.65;;;;;;;;;;4975240;28;20227;-84
2021/11/23 06:53:55;;;;;;;40.28;36.33;;;;;;;;;;4974970;28;20239;-84
2021/11/23 06:56:23;;;;;;;43.22;39.08;;;;;;;;;;4974470;28;20256;-85
2021/11/23 06:58:50;;;;;;;39.25;35.75;;;;;;;;;;4974923;28;20200;-85
2021/11/23 07:01:18;;;;;;;40.17;36.35;;;;;;;;;;4975015;28;20197;-85
2021/11/23 07:03:45;;;;;;;39.95;36.00;;;;;;;;;;4975733;28;20199;-85
2021/11/23 07:06:12;;;;;;;39.45;35.65;;;;;;;;;;4975108;28;20248;-92
2021/11/23 07:08:41;;;;;;;40.97;37.05;;;;;;;;;;4976901;28;20587;-83
2021/11/23 07:11:12;;;;;;;38.30;34.90;;;;;;;;;;4974273;28;20193;-82
2021/11/23 07:13:40;;;;;;;40.17;36.17;;;;;;;;;;4974284;28;20276;-83
2021/11/23 07:16:08;;;;;;;113.63;103.35;;;;;;;;;;4974028;28;20358;-83
2021/11/23 07:18:37;;;;;;;40.60;36.83;;;;;;;;;;4973890;28;20254;-82
2021/11/23 07:21:05;;;;;;;42.25;38.25;;;;;;;;;;4974464;28;20194;-84
2021/11/23 07:23:32;;;;;;;40.08;35.75;;;;;;;;;;4974520;28;20191;-84
2021/11/23 07:25:59;;;;;;;40.45;36.13;;;;;;;;;;4974317;28;20188;-84
2021/11/23 07:28:28;;;;;;;42.67;38.47;;;;;;;;;;4974616;28;20246;-84
2021/11/23 07:30:57;;;;;;;40.90;37.13;;;;;;;;;;4974985;28;20280;-83
2021/11/23 07:33:24;;;;;;;43.75;39.20;;;;;;;;;;4972752;28;20210;-81
2021/11/23 07:35:52;;;;;;;43.13;37.95;;;;;;;;;;4975064;28;20574;-81
2021/11/23 07:38:20;;;;;;;40.22;36.20;;;;;;;;;;4993014;28;20656;-84
2021/11/23 07:40:47;;;;;;;41.55;37.67;;;;;;;;;;4993443;28;20215;-84
2021/11/23 07:43:15;;;;;;;43.47;38.47;;;;;;;;;;4993878;28;20192;-84
2021/11/23 07:45:44;;;;;;;43.13;38.88;;;;;;;;;;4993154;28;20232;-82
2021/11/23 07:48:11;;;;;;;40.38;36.28;;;;;;;;;;4993008;28;20202;-81
2021/11/23 07:50:40;;;;;;;42.65;38.17;;;;;;;;;;4993204;28;20579;-81
2021/11/23 07:53:08;;;;;;;43.10;38.97;;;;;;;;;;4993874;28;20633;-79
2021/11/23 07:55:36;;;;;;;42.30;38.35;;;;;;;;;;4992837;28;20296;-79
2021/11/23 07:58:05;;;;;;;41.60;37.50;;;;;;;;;;4993064;28;20199;-79
2021/11/23 08:00:33;;;;;;;42.88;38.63;;;;;;;;;;4992986;28;20258;-85
2021/11/23 08:03:02;;;;;;;43.92;38.80;;;;;;;;;;4992910;28;20252;-80
2021/11/23 08:05:34;;;;;;;43.95;39.35;;;;;;;;;;4992973;28;20244;-79
2021/11/23 08:08:02;;;;;;;40.58;36.45;;;;;;;;;;4973986;28;20211;-81
2021/11/23 08:10:30;;;;;;;42.88;38.60;;;;;;;;;;4975724;28;20193;-79
2021/11/23 08:12:57;;;;;;;43.10;38.75;;;;;;;;;;4980802;28;20291;-78
2021/11/23 08:15:26;;;;;;;46.67;41.80;;;;;;;;;;4986065;28;20201;-81
2021/11/23 08:17:54;;;;;;;44.80;40.15;;;;;;;;;;4984132;28;20274;-80
2021/11/23 08:20:24;;;;;;;50.75;39.25;;;;;;;;;;4983914;28;20262;-78
2021/11/23 08:22:52;;;;;;;53.03;41.00;;;;;;;;;;4987404;28;20215;-80
2021/11/23 08:25:20;;;;;;;54.28;40.58;;;;;;;;;;4984845;28;20393;-80
2021/11/23 08:27:49;;;;;;;45.05;39.47;;;;;;;;;;4983992;28;20291;-79
2021/11/23 08:30:17;;;;;;;68.80;42.45;;;;;;;;;;4983555;28;20236;-79
2021/11/23 08:32:45;;;;;;;48.60;39.65;;;;;;;;;;4982357;28;20228;-79
2021/11/23 08:35:13;;;;;;;60.97;42.80;;;;;;;;;;4982990;28;20218;-89
2021/11/23 08:37:44;;;;;;;59.45;41.75;;;;;;;;;;4991153;28;20274;-79
2021/11/23 08:40:13;;;;;;;48.47;40.90;;;;;;;;;;4972356;28;20258;-79
2021/11/23 08:42:42;;;;;;;84.07;45.65;;;;;;;;;;4983427;28;20215;-90
2021/11/23 08:45:11;;;;;;;63.35;42.03;;;;;;;;;;4983590;28;20222;-79
2021/11/23 08:47:39;;;;;;;80.55;45.55;;;;;;;;;;4983396;28;20237;-79
2021/11/23 08:50:09;;;;;;;87.38;47.15;;;;;;;;;;4982974;28;20208;-79
2021/11/23 08:52:37;;;;;;;61.42;42.45;;;;;;;;;;4981890;28;20215;-78
2021/11/23 08:55:07;;;;;;;77.20;44.60;;;;;;;;;;4965213;28;20209;-81
2021/11/23 08:57:35;;;;;;;162.98;54.47;;;;;;;;;;4965234;28;20240;-81
2021/11/23 09:00:16;;;;;;;67.85;44.35;;;;;;;;;;4972868;28;20693;-91
2021/11/23 09:02:46;;;;;;;66.07;42.92;;;;;;;;;;4972524;28;20241;-88
2021/11/23 09:05:15;;;;;;;134.85;50.38;;;;;;;;;;4952368;28;20293;-95
2021/11/23 09:07:44;;;;;;;67.10;45.30;;;;;;;;;;4979971;28;20679;-81
2021/11/23 09:10:18;;;;;;;57.90;42.53;;;;;;;;;;4973792;28;20215;-83
2021/11/23 09:12:47;;;;;;;85.72;45.63;;;;;;;;;;4964174;28;20208;-80
2021/11/23 09:15:16;;;;;;;156.07;53.38;;;;;;;;;;4963200;28;20749;-80
2021/11/23 09:17:44;;;;;;;149.35;52.28;;;;;;;;;;4963448;28;20225;-79
2021/11/23 09:20:13;;;;;;;82.30;44.63;;;;;;;;;;4945995;28;20290;-80
2021/11/23 09:22:41;;;;;;;88.07;43.47;;;;;;;;;;4963623;28;20223;-80
2021/11/23 09:25:09;;;;;;;122.72;51.85;;;;;;;;;;4962897;28;20208;-82
2021/11/23 09:27:38;;;;;;;72.50;47.38;;;;;;;;;;4962474;28;20208;-82
2021/11/23 09:30:07;;;;;;;132.48;53.42;;;;;;;;;;4963080;28;20219;-82
2021/11/23 09:32:34;;;;;;;113.40;54.22;;;;;;;;;;4962787;28;20218;-82
2021/11/23 09:35:02;;;;;;;104.10;48.67;;;;;;;;;;4962476;28;20217;-81
2021/11/23 09:37:29;;;;;;;58.35;44.13;;;;;;;;;;4964263;28;20784;-82
2021/11/23 09:39:56;;;;;;;76.97;45.28;;;;;;;;;;4964391;28;20678;-81
2021/11/23 09:42:24;;;;;;;56.53;42.08;;;;;;;;;;4963571;28;20214;-82
2021/11/23 09:44:53;;;;;;;65.45;45.85;;;;;;;;;;4964098;28;20783;-81
2021/11/23 09:47:21;;;;;;;118.93;53.45;;;;;;;;;;4966233;28;20207;-82
2021/11/23 09:49:48;;;;;;;113.32;51.85;;;;;;;;;;4964032;28;20238;-82
2021/11/23 09:52:16;;;;;;;116.28;50.10;;;;;;;;;;4963236;28;20219;-82
2021/11/23 09:54:43;;;;;;;139.18;55.97;;;;;;;;;;4963195;28;20244;-82
2021/11/23 09:57:10;;;;;;;81.13;46.10;;;;;;;;;;4962311;28;20234;-82
2021/11/23 09:59:38;;;;;;;102.38;50.03;;;;;;;;;;4964427;28;20209;-82
2021/11/23 10:02:07;;;;;;;69.28;44.08;;;;;;;;;;4963071;28;20208;-82
2021/11/23 10:04:36;;;;;;;78.30;46.33;;;;;;;;;;4965760;28;20340;-82
2021/11/23 10:07:05;;;;;;;85.18;46.13;;;;;;;;;;4964483;28;20216;-82
2021/11/23 10:09:36;;;;;;;68.28;43.75;;;;;;;;;;4964719;28;20220;-82
2021/11/23 10:12:14;;;;;;;121.70;50.35;;;;;;;;;;4967276;28;20216;-81
2021/11/23 10:14:42;;;;;;;93.82;48.28;;;;;;;;;;4965809;28;20658;-82
2021/11/23 10:17:25;;;;;;;70.63;47.20;;;;;;;;;;4963655;28;20235;-81
2021/11/23 10:19:56;;;;;;;69.57;45.63;;;;;;;;;;4962169;28;20208;-81
2021/11/23 10:22:31;;;;;;;97.38;48.55;;;;;;;;;;4964450;28;20204;-80
2021/11/23 10:25:03;;;;;;;73.30;47.20;;;;;;;;;;4965484;28;20741;-81
2021/11/23 10:27:31;;;;;;;69.97;46.75;;;;;;;;;;4967363;28;20212;-82
2021/11/23 10:30:01;;;;;;;102.15;48.58;;;;;;;;;;4971829;28;20324;-83
2021/11/23 10:32:30;;;;;;;258.95;66.43;;;;;;;;;;4974047;28;20199;-95
2021/11/23 10:35:00;;;;;;;90.75;47.95;;;;;;;;;;4979587;28;20273;-81
2021/11/23 10:37:29;;;;;;;108.80;48.10;;;;;;;;;;4990122;28;20208;-81
2021/11/23 10:40:07;;;;;;;80.13;47.35;;;;;;;;;;4990615;28;20228;-81
2021/11/23 10:42:36;;;;;;;61.17;47.72;;;;;;;;;;4987767;28;20197;-81
2021/11/23 10:45:06;;;;;;;89.65;45.70;;;;;;;;;;4975140;28;20220;-81
2021/11/23 10:47:38;;;;;;;82.32;46.95;;;;;;;;;;4970103;28;20212;-90
2021/11/23 10:50:09;;;;;;;112.30;48.03;;;;;;;;;;4976376;28;20268;-90
2021/11/23 10:52:40;;;;;;;78.90;47.88;;;;;;;;;;4978951;28;20291;-90
2021/11/23 10:55:26;;;;;;;222.60;62.80;;;;;;;;;;4992527;28;20286;-91
2021/11/23 10:57:56;;;;;;;68.05;44.13;;;;;;;;;;4977153;28;20283;-92
2021/11/23 11:00:24;;;;;;;60.72;42.85;;;;;;;;;;4983625;28;20216;-95
2021/11/23 11:02:55;;;;;;;70.22;45.60;;;;;;;;;;4997874;28;20217;-96
2021/11/23 11:05:24;;;;;;;69.60;44.05;;;;;;;;;;4990518;28;20222;-81
2021/11/23 11:07:53;;;;;;;138.85;53.17;;;;;;;;;;4995384;28;20235;-92
2021/11/23 11:10:21;;;;;;;94.32;48.17;;;;;;;;;;4991348;28;20204;-86
2021/11/23 11:12:48;;;;;;;67.22;45.60;;;;;;;;;;4990868;28;20200;-85
2021/11/23 11:15:18;;;;;;;79.70;45.78;;;;;;;;;;4988744;28;20211;-85
2021/11/23 11:17:46;;;;;;;157.40;54.60;;;;;;;;;;4991827;28;20220;-86
2021/11/23 11:20:14;;;;;;;70.47;48.58;;;;;;;;;;4987143;28;20219;-78
2021/11/23 11:22:53;;;;;;;100.30;51.97;;;;;;;;;;4986249;28;20603;-79
2021/11/23 11:25:25;;;;;;;104.93;50.80;;;;;;;;;;4983773;28;20575;-80
2021/11/23 11:27:53;;;;;;;131.48;48.97;;;;;;;;;;4983407;28;20236;-78
2021/11/23 11:30:22;;;;;;;90.82;49.15;;;;;;;;;;4984287;28;20333;-79
2021/11/23 11:32:50;;;;;;;73.90;44.45;;;;;;;;;;4985643;28;20236;-79
2021/11/23 11:35:22;;;;;;;69.95;45.13;;;;;;;;;;4983503;28;20203;-79
2021/11/23 11:37:49;;;;;;;68.10;44.60;;;;;;;;;;4984002;28;20244;-78
2021/11/23 11:40:25;;;;;;;73.50;45.72;;;;;;;;;;4984676;28;20205;-79
2021/11/23 11:42:54;;;;;;;66.72;47.25;;;;;;;;;;4982363;28;20219;-78
2021/11/23 11:45:24;;;;;;;103.88;52.83;;;;;;;;;;4984960;28;20203;-78
2021/11/23 11:47:53;;;;;;;136.30;54.78;;;;;;;;;;4988705;28;20227;-79
2021/11/23 11:50:22;;;;;;;106.63;50.65;;;;;;;;;;4994234;28;20299;-79
2021/11/23 11:53:07;;;;;;;70.03;46.10;;;;;;;;;;4986475;28;20240;-79
2021/11/23 11:55:36;;;;;;;72.07;48.00;;;;;;;;;;4987799;28;20215;-79
2021/11/23 11:58:05;;;;;;;73.85;46.05;;;;;;;;;;4987641;28;20661;-79
2021/11/23 12:00:34;;;;;;;78.95;49.67;;;;;;;;;;4986849;28;20212;-79
2021/11/23 12:03:19;;;;;;;159.27;53.83;;;;;;;;;;4984073;28;20667;-78
2021/11/23 12:05:56;;;;;;;112.85;54.42;;;;;;;;;;4987657;28;20227;-79
2021/11/23 12:08:24;;;;;;;87.35;46.38;;;;;;;;;;4990108;28;20211;-79
2021/11/23 12:10:53;;;;;;;80.80;45.22;;;;;;;;;;4990809;28;20205;-79
2021/11/23 12:13:27;;;;;;;86.70;47.17;;;;;;;;;;4993831;28;20211;-79
2021/11/23 12:16:02;;;;;;;91.28;47.40;;;;;;;;;;4990368;28;20210;-79
2021/11/23 12:18:50;;;;;;;77.30;47.65;;;;;;;;;;4993041;28;20397;-78
2021/11/23 12:21:18;;;;;;;142.00;53.80;;;;;;;;;;4989714;28;20255;-79
2021/11/23 12:23:50;;;;;;;91.13;50.22;;;;;;;;;;4987320;28;20212;-87
2021/11/23 12:26:20;;;;;;;128.55;54.13;;;;;;;;;;4991999;28;20211;-84
2021/11/23 12:28:55;;;;;;;87.80;50.53;;;;;;;;;;4992102;28;20219;-85
2021/11/23 12:31:23;;;;;;;132.52;54.22;;;;;;;;;;4993319;28;20210;-85
2021/11/23 12:33:51;;;;;;;136.45;56.22;;;;;;;;;;4996975;28;20212;-83
2021/11/23 12:36:22;;;;;;;85.72;46.15;;;;;;;;;;4989335;28;20231;-84
2021/11/23 12:38:51;;;;;;;99.22;48.80;;;;;;;;;;4988209;28;20233;-83
2021/11/23 12:41:22;;;;;;;86.45;50.70;;;;;;;;;;4988512;28;20219;-82
2021/11/23 12:43:50;;;;;;;120.03;53.47;;;;;;;;;;4987024;28;20250;-83
2021/11/23 12:46:19;;;;;;;191.50;55.53;;;;;;;;;;4987909;28;20683;-84
2021/11/23 12:48:47;;;;;;;84.97;50.50;;;;;;;;;;4986619;28;20662;-84
2021/11/23 12:51:19;;;;;;;101.72;50.47;;;;;;;;;;4985384;28;20206;-84
2021/11/23 12:53:50;;;;;;;257.95;66.00;;;;;;;;;;4978215;28;20241;-83
2021/11/23 12:56:18;;;;;;;119.30;50.28;;;;;;;;;;4964242;28;20574;-83
2021/11/23 12:58:47;;;;;;;89.53;48.83;;;;;;;;;;4969553;28;20233;-84
2021/11/23 13:01:27;;;;;;;132.15;57.60;;;;;;;;;;4956663;28;20460;-83
2021/11/23 13:03:55;;;;;;;131.88;53.38;;;;;;;;;;4965870;28;20212;-83
2021/11/23 13:06:23;;;;;;;104.55;50.25;;;;;;;;;;4966764;28;20665;-83
2021/11/23 13:09:02;;;;;;;167.70;55.65;;;;;;;;;;4955387;28;20221;-83
2021/11/23 13:11:30;;;;;;;99.72;52.88;;;;;;;;;;4972205;28;20209;-83
2021/11/23 13:14:07;;;;;;;84.00;49.03;;;;;;;;;;4972194;28;20212;-83
2021/11/23 13:16:50;;;;;;;71.75;48.55;;;;;;;;;;4972961;28;20213;-84
2021/11/23 13:19:20;;;;;;;114.70;52.80;;;;;;;;;;4969247;28;20262;-83
2021/11/23 13:21:47;;;;;;;86.95;48.53;;;;;;;;;;4978076;28;20299;-82
2021/11/23 13:24:17;;;;;;;90.88;50.10;;;;;;;;;;4983756;28;20233;-82
2021/11/23 13:26:44;;;;;;;379.00;71.70;;;;;;;;;;4980607;28;20723;-83
2021/11/23 13:29:14;;;;;;;130.38;57.05;;;;;;;;;;4981726;28;20290;-82
2021/11/23 13:31:43;;;;;;;106.78;50.10;;;;;;;;;;4987220;28;20243;-82
2021/11/23 13:34:12;;;;;;;132.70;57.78;;;;;;;;;;4996472;28;20206;-82
2021/11/23 13:36:41;;;;;;;98.20;50.63;;;;;;;;;;4988851;28;20208;-82
2021/11/23 13:39:14;;;;;;;316.73;69.18;;;;;;;;;;4986672;28;20269;-80
2021/11/23 13:41:46;;;;;;;138.80;57.57;;;;;;;;;;4976967;28;20245;-80
2021/11/23 13:44:16;;;;;;;70.05;45.20;;;;;;;;;;4980366;28;20844;-80
2021/11/23 13:46:45;;;;;;;99.35;50.65;;;;;;;;;;4977900;28;20268;-79
2021/11/23 13:49:16;;;;;;;162.10;57.45;;;;;;;;;;4981304;28;20300;-81
2021/11/23 13:51:44;;;;;;;120.20;51.92;;;;;;;;;;4980122;28;20219;-80
2021/11/23 13:54:13;;;;;;;113.25;52.38;;;;;;;;;;4984706;28;20236;-81
2021/11/23 13:56:42;;;;;;;132.27;56.08;;;;;;;;;;4977301;28;20240;-80
2021/11/23 13:59:12;;;;;;;103.20;48.83;;;;;;;;;;4968449;28;20241;-80
2021/11/23 14:01:54;;;;;;;80.15;47.45;;;;;;;;;;4968531;28;20679;-81
2021/11/23 14:04:24;;;;;;;64.03;45.17;;;;;;;;;;4968218;28;20205;-79
2021/11/23 14:07:05;;;;;;;69.45;45.85;;;;;;;;;;4970920;28;20214;-79
2021/11/23 14:09:51;;;;;;;68.50;42.95;;;;;;;;;;4967310;28;20221;-78
2021/11/23 14:12:19;;;;;;;88.57;44.83;;;;;;;;;;4967672;28;20207;-80
2021/11/23 14:14:57;;;;;;;73.93;41.35;;;;;;;;;;4966852;28;20206;-79
2021/11/23 14:17:46;;;;;;;57.63;40.25;;;;;;;;;;4971193;28;20527;-79
2021/11/23 14:20:14;;;;;;;61.70;40.78;;;;;;;;;;4965552;28;20321;-80
2021/11/23 14:22:43;;;;;;;58.28;39.10;;;;;;;;;;4968853;28;20262;-79
2021/11/23 14:25:28;;;;;;;63.10;38.47;;;;;;;;;;4967985;28;20205;-80
2021/11/23 14:27:56;;;;;;;82.68;40.75;;;;;;;;;;4964016;28;20311;-79